sensor_id;sensor_type;location;lat;lon;timestamp;P1;durP1;ratioP1;P2;durP2;ratioP2
938;SDS011;456;53.584;9.968;2023-04-16T00:01:51;10.40;;;9.50;;
938;SDS011;456;53.584;9.968;2023-04-16T00:04:16;10.47;;;9.37;;
938;SDS011;456;53.584;9.968;2023-04-16T00:06:42;11.17;;;10.07;;
938;SDS011;456;53.584;9.968;2023-04-16T00:09:07;10.53;;;9.53;;
938;SDS011;456;53.584;9.968;2023-04-16T00:11:33;10.40;;;9.30;;
938;SDS011;456;53.584;9.968;2023-04-16T00:13:59;10.33;;;9.43;;
938;SDS011;456;53.584;9.968;2023-04-16T00:16:25;11.57;;;10.37;;
938;SDS011;456;53.584;9.968;2023-04-16T00:18:51;13.00;;;9.70;;
938;SDS011;456;53.584;9.968;2023-04-16T00:21:17;11.13;;;10.03;;
938;SDS011;456;53.584;9.968;2023-04-16T00:23:42;12.13;;;9.83;;
938;SDS011;456;53.584;9.968;2023-04-16T00:26:08;10.43;;;9.47;;
938;SDS011;456;53.584;9.968;2023-04-16T00:28:34;10.87;;;9.80;;
938;SDS011;456;53.584;9.968;2023-04-16T00:30:59;11.07;;;10.10;;
938;SDS011;456;53.584;9.968;2023-04-16T00:33:25;11.60;;;10.50;;
938;SDS011;456;53.584;9.968;2023-04-16T00:35:51;11.30;;;10.10;;
938;SDS011;456;53.584;9.968;2023-04-16T00:38:17;10.73;;;9.73;;
938;SDS011;456;53.584;9.968;2023-04-16T00:40:42;12.20;;;11.07;;
938;SDS011;456;53.584;9.968;2023-04-16T00:43:08;11.27;;;10.07;;
938;SDS011;456;53.584;9.968;2023-04-16T00:45:33;11.43;;;10.30;;
938;SDS011;456;53.584;9.968;2023-04-16T00:47:59;11.50;;;10.00;;
938;SDS011;456;53.584;9.968;2023-04-16T00:50:25;11.80;;;10.57;;
938;SDS011;456;53.584;9.968;2023-04-16T00:52:51;11.90;;;10.80;;
938;SDS011;456;53.584;9.968;2023-04-16T00:55:17;12.17;;;10.97;;
938;SDS011;456;53.584;9.968;2023-04-16T00:57:44;13.60;;;11.90;;
938;SDS011;456;53.584;9.968;2023-04-16T01:00:10;11.37;;;10.30;;
938;SDS011;456;53.584;9.968;2023-04-16T01:02:36;12.93;;;11.67;;
938;SDS011;456;53.584;9.968;2023-04-16T01:05:02;13.40;;;11.73;;
938;SDS011;456;53.584;9.968;2023-04-16T01:07:29;13.63;;;12.23;;
938;SDS011;456;53.584;9.968;2023-04-16T01:09:54;13.80;;;12.40;;
938;SDS011;456;53.584;9.968;2023-04-16T01:12:20;13.97;;;12.67;;
938;SDS011;456;53.584;9.968;2023-04-16T01:14:46;13.30;;;12.10;;
938;SDS011;456;53.584;9.968;2023-04-16T01:17:12;12.67;;;11.57;;
938;SDS011;456;53.584;9.968;2023-04-16T01:19:37;12.00;;;10.67;;
938;SDS011;456;53.584;9.968;2023-04-16T01:22:03;13.93;;;12.50;;
938;SDS011;456;53.584;9.968;2023-04-16T01:24:29;13.00;;;11.77;;
938;SDS011;456;53.584;9.968;2023-04-16T01:26:58;13.73;;;12.43;;
938;SDS011;456;53.584;9.968;2023-04-16T01:29:24;14.00;;;12.60;;
938;SDS011;456;53.584;9.968;2023-04-16T01:31:50;14.37;;;12.90;;
938;SDS011;456;53.584;9.968;2023-04-16T01:34:15;13.40;;;12.03;;
938;SDS011;456;53.584;9.968;2023-04-16T01:36:41;13.70;;;12.07;;
938;SDS011;456;53.584;9.968;2023-04-16T01:39:06;13.90;;;12.50;;
938;SDS011;456;53.584;9.968;2023-04-16T01:41:35;14.10;;;12.10;;
938;SDS011;456;53.584;9.968;2023-04-16T01:44:01;14.20;;;12.80;;
938;SDS011;456;53.584;9.968;2023-04-16T01:46:27;13.57;;;12.30;;
938;SDS011;456;53.584;9.968;2023-04-16T01:48:55;13.47;;;12.17;;
938;SDS011;456;53.584;9.968;2023-04-16T01:51:21;14.73;;;13.33;;
938;SDS011;456;53.584;9.968;2023-04-16T01:53:47;12.93;;;11.77;;
938;SDS011;456;53.584;9.968;2023-04-16T01:56:16;14.50;;;13.00;;
938;SDS011;456;53.584;9.968;2023-04-16T01:58:41;13.90;;;12.53;;
938;SDS011;456;53.584;9.968;2023-04-16T02:01:10;14.40;;;12.90;;
938;SDS011;456;53.584;9.968;2023-04-16T02:03:35;13.93;;;12.63;;
938;SDS011;456;53.584;9.968;2023-04-16T02:06:01;15.07;;;13.07;;
938;SDS011;456;53.584;9.968;2023-04-16T02:08:27;13.57;;;12.07;;
938;SDS011;456;53.584;9.968;2023-04-16T02:10:53;13.23;;;11.97;;
938;SDS011;456;53.584;9.968;2023-04-16T02:13:20;11.60;;;10.40;;
938;SDS011;456;53.584;9.968;2023-04-16T02:15:46;13.33;;;12.00;;
938;SDS011;456;53.584;9.968;2023-04-16T02:18:13;12.47;;;11.37;;
938;SDS011;456;53.584;9.968;2023-04-16T02:20:43;13.07;;;11.83;;
938;SDS011;456;53.584;9.968;2023-04-16T02:23:10;13.70;;;12.33;;
938;SDS011;456;53.584;9.968;2023-04-16T02:25:39;13.33;;;12.03;;
938;SDS011;456;53.584;9.968;2023-04-16T02:28:09;13.10;;;11.90;;
938;SDS011;456;53.584;9.968;2023-04-16T02:30:36;13.43;;;12.13;;
938;SDS011;456;53.584;9.968;2023-04-16T02:33:03;12.77;;;11.47;;
938;SDS011;456;53.584;9.968;2023-04-16T02:35:31;11.83;;;10.63;;
938;SDS011;456;53.584;9.968;2023-04-16T02:37:57;12.23;;;11.13;;
938;SDS011;456;53.584;9.968;2023-04-16T02:40:23;12.10;;;11.10;;
938;SDS011;456;53.584;9.968;2023-04-16T02:42:49;12.33;;;11.23;;
938;SDS011;456;53.584;9.968;2023-04-16T02:45:15;13.10;;;11.40;;
938;SDS011;456;53.584;9.968;2023-04-16T02:47:41;14.17;;;12.77;;
938;SDS011;456;53.584;9.968;2023-04-16T02:50:07;13.10;;;12.00;;
938;SDS011;456;53.584;9.968;2023-04-16T02:52:33;12.07;;;10.97;;
938;SDS011;456;53.584;9.968;2023-04-16T02:54:58;12.67;;;11.40;;
938;SDS011;456;53.584;9.968;2023-04-16T02:57:24;13.00;;;11.80;;
938;SDS011;456;53.584;9.968;2023-04-16T02:59:50;12.37;;;11.17;;
938;SDS011;456;53.584;9.968;2023-04-16T03:02:15;11.60;;;10.10;;
938;SDS011;456;53.584;9.968;2023-04-16T03:04:41;12.23;;;11.03;;
938;SDS011;456;53.584;9.968;2023-04-16T03:07:07;11.33;;;10.30;;
938;SDS011;456;53.584;9.968;2023-04-16T03:09:33;13.03;;;11.73;;
938;SDS011;456;53.584;9.968;2023-04-16T03:11:59;12.07;;;10.77;;
938;SDS011;456;53.584;9.968;2023-04-16T03:14:28;12.77;;;11.57;;
938;SDS011;456;53.584;9.968;2023-04-16T03:16:54;13.10;;;11.80;;
938;SDS011;456;53.584;9.968;2023-04-16T03:19:19;11.90;;;10.70;;
938;SDS011;456;53.584;9.968;2023-04-16T03:21:45;13.47;;;11.30;;
938;SDS011;456;53.584;9.968;2023-04-16T03:24:11;12.53;;;11.20;;
938;SDS011;456;53.584;9.968;2023-04-16T03:26:37;11.50;;;10.30;;
938;SDS011;456;53.584;9.968;2023-04-16T03:29:02;12.97;;;11.77;;
938;SDS011;456;53.584;9.968;2023-04-16T03:31:28;11.40;;;10.50;;
938;SDS011;456;53.584;9.968;2023-04-16T03:33:54;11.00;;;10.00;;
938;SDS011;456;53.584;9.968;2023-04-16T03:36:20;10.63;;;9.60;;
938;SDS011;456;53.584;9.968;2023-04-16T03:38:46;11.37;;;10.27;;
938;SDS011;456;53.584;9.968;2023-04-16T03:41:12;12.80;;;11.57;;
938;SDS011;456;53.584;9.968;2023-04-16T03:43:38;11.40;;;10.40;;
938;SDS011;456;53.584;9.968;2023-04-16T03:46:03;11.50;;;10.30;;
938;SDS011;456;53.584;9.968;2023-04-16T03:48:29;12.40;;;11.20;;
938;SDS011;456;53.584;9.968;2023-04-16T03:50:55;9.87;;;8.97;;
938;SDS011;456;53.584;9.968;2023-04-16T03:53:20;11.90;;;10.80;;
938;SDS011;456;53.584;9.968;2023-04-16T03:55:48;12.17;;;10.30;;
938;SDS011;456;53.584;9.968;2023-04-16T03:58:15;11.40;;;10.40;;
938;SDS011;456;53.584;9.968;2023-04-16T04:00:41;11.10;;;10.10;;
938;SDS011;456;53.584;9.968;2023-04-16T04:03:07;11.20;;;10.00;;
938;SDS011;456;53.584;9.968;2023-04-16T04:05:36;10.53;;;9.53;;
938;SDS011;456;53.584;9.968;2023-04-16T04:08:03;12.07;;;10.90;;
938;SDS011;456;53.584;9.968;2023-04-16T04:10:33;11.00;;;9.90;;
938;SDS011;456;53.584;9.968;2023-04-16T04:12:59;11.87;;;10.10;;
938;SDS011;456;53.584;9.968;2023-04-16T04:15:26;11.70;;;10.50;;
938;SDS011;456;53.584;9.968;2023-04-16T04:17:52;10.77;;;9.67;;
938;SDS011;456;53.584;9.968;2023-04-16T04:20:18;11.37;;;10.20;;
938;SDS011;456;53.584;9.968;2023-04-16T04:22:43;10.77;;;9.67;;
938;SDS011;456;53.584;9.968;2023-04-16T04:25:09;9.83;;;8.97;;
938;SDS011;456;53.584;9.968;2023-04-16T04:27:35;10.00;;;9.10;;
938;SDS011;456;53.584;9.968;2023-04-16T04:30:00;11.27;;;10.17;;
938;SDS011;456;53.584;9.968;2023-04-16T04:32:27;10.53;;;9.53;;
938;SDS011;456;53.584;9.968;2023-04-16T04:34:53;10.40;;;9.40;;
938;SDS011;456;53.584;9.968;2023-04-16T04:37:18;10.40;;;9.30;;
938;SDS011;456;53.584;9.968;2023-04-16T04:39:44;10.80;;;9.70;;
938;SDS011;456;53.584;9.968;2023-04-16T04:42:09;11.03;;;9.93;;
938;SDS011;456;53.584;9.968;2023-04-16T04:44:35;11.63;;;10.03;;
938;SDS011;456;53.584;9.968;2023-04-16T04:47:00;11.77;;;10.57;;
938;SDS011;456;53.584;9.968;2023-04-16T04:49:26;10.00;;;9.20;;
938;SDS011;456;53.584;9.968;2023-04-16T04:51:51;11.73;;;10.63;;
938;SDS011;456;53.584;9.968;2023-04-16T04:54:17;9.50;;;8.60;;
938;SDS011;456;53.584;9.968;2023-04-16T04:56:42;10.73;;;9.73;;
938;SDS011;456;53.584;9.968;2023-04-16T04:59:10;10.93;;;9.83;;
938;SDS011;456;53.584;9.968;2023-04-16T05:01:35;9.63;;;8.73;;
938;SDS011;456;53.584;9.968;2023-04-16T05:04:02;11.80;;;10.60;;
938;SDS011;456;53.584;9.968;2023-04-16T05:06:28;9.87;;;8.90;;
938;SDS011;456;53.584;9.968;2023-04-16T05:08:53;9.50;;;8.70;;
938;SDS011;456;53.584;9.968;2023-04-16T05:11:19;10.23;;;9.23;;
938;SDS011;456;53.584;9.968;2023-04-16T05:13:45;9.30;;;8.50;;
938;SDS011;456;53.584;9.968;2023-04-16T05:16:10;10.83;;;9.83;;
938;SDS011;456;53.584;9.968;2023-04-16T05:18:36;9.70;;;8.80;;
938;SDS011;456;53.584;9.968;2023-04-16T05:21:01;10.60;;;9.60;;
938;SDS011;456;53.584;9.968;2023-04-16T05:23:27;10.03;;;9.13;;
938;SDS011;456;53.584;9.968;2023-04-16T05:25:53;9.87;;;8.93;;
938;SDS011;456;53.584;9.968;2023-04-16T05:28:19;9.77;;;8.87;;
938;SDS011;456;53.584;9.968;2023-04-16T05:30:44;11.20;;;10.20;;
938;SDS011;456;53.584;9.968;2023-04-16T05:33:10;10.60;;;9.60;;
938;SDS011;456;53.584;9.968;2023-04-16T05:35:36;10.60;;;9.60;;
938;SDS011;456;53.584;9.968;2023-04-16T05:38:01;10.27;;;9.17;;
938;SDS011;456;53.584;9.968;2023-04-16T05:40:28;10.17;;;9.27;;
938;SDS011;456;53.584;9.968;2023-04-16T05:42:54;10.50;;;9.50;;
938;SDS011;456;53.584;9.968;2023-04-16T05:45:19;11.37;;;10.27;;
938;SDS011;456;53.584;9.968;2023-04-16T05:47:45;9.97;;;9.07;;
938;SDS011;456;53.584;9.968;2023-04-16T05:50:10;9.50;;;8.70;;
938;SDS011;456;53.584;9.968;2023-04-16T05:52:36;10.80;;;9.80;;
938;SDS011;456;53.584;9.968;2023-04-16T05:55:02;10.13;;;9.13;;
938;SDS011;456;53.584;9.968;2023-04-16T05:57:29;9.83;;;8.10;;
938;SDS011;456;53.584;9.968;2023-04-16T05:59:54;9.57;;;8.60;;
938;SDS011;456;53.584;9.968;2023-04-16T06:02:20;10.77;;;9.67;;
938;SDS011;456;53.584;9.968;2023-04-16T06:04:46;10.43;;;9.37;;
938;SDS011;456;53.584;9.968;2023-04-16T06:07:11;10.53;;;9.57;;
938;SDS011;456;53.584;9.968;2023-04-16T06:09:37;9.43;;;8.50;;
938;SDS011;456;53.584;9.968;2023-04-16T06:12:02;10.50;;;9.47;;
938;SDS011;456;53.584;9.968;2023-04-16T06:14:28;9.73;;;8.73;;
938;SDS011;456;53.584;9.968;2023-04-16T06:16:54;10.20;;;9.30;;
938;SDS011;456;53.584;9.968;2023-04-16T06:19:20;9.63;;;8.83;;
938;SDS011;456;53.584;9.968;2023-04-16T06:21:45;9.90;;;9.00;;
938;SDS011;456;53.584;9.968;2023-04-16T06:24:11;9.13;;;8.40;;
938;SDS011;456;53.584;9.968;2023-04-16T06:26:37;10.40;;;9.33;;
938;SDS011;456;53.584;9.968;2023-04-16T06:29:03;9.83;;;8.73;;
938;SDS011;456;53.584;9.968;2023-04-16T06:31:30;10.10;;;9.20;;
938;SDS011;456;53.584;9.968;2023-04-16T06:33:56;9.67;;;8.73;;
938;SDS011;456;53.584;9.968;2023-04-16T06:36:22;10.23;;;9.30;;
938;SDS011;456;53.584;9.968;2023-04-16T06:38:47;10.33;;;9.33;;
938;SDS011;456;53.584;9.968;2023-04-16T06:41:13;12.47;;;10.23;;
938;SDS011;456;53.584;9.968;2023-04-16T06:43:39;10.53;;;9.43;;
938;SDS011;456;53.584;9.968;2023-04-16T06:46:05;11.67;;;9.50;;
938;SDS011;456;53.584;9.968;2023-04-16T06:48:30;10.33;;;8.67;;
938;SDS011;456;53.584;9.968;2023-04-16T06:50:56;10.30;;;9.33;;
938;SDS011;456;53.584;9.968;2023-04-16T06:53:22;10.03;;;8.87;;
938;SDS011;456;53.584;9.968;2023-04-16T06:55:48;10.53;;;9.63;;
938;SDS011;456;53.584;9.968;2023-04-16T06:58:13;9.47;;;8.47;;
938;SDS011;456;53.584;9.968;2023-04-16T07:00:39;10.67;;;9.67;;
938;SDS011;456;53.584;9.968;2023-04-16T07:03:04;9.60;;;8.70;;
938;SDS011;456;53.584;9.968;2023-04-16T07:05:30;10.13;;;9.20;;
938;SDS011;456;53.584;9.968;2023-04-16T07:07:55;9.33;;;8.53;;
938;SDS011;456;53.584;9.968;2023-04-16T07:10:23;10.03;;;9.13;;
938;SDS011;456;53.584;9.968;2023-04-16T07:12:49;9.67;;;8.83;;
938;SDS011;456;53.584;9.968;2023-04-16T07:15:14;10.23;;;9.33;;
938;SDS011;456;53.584;9.968;2023-04-16T07:17:40;9.53;;;8.73;;
938;SDS011;456;53.584;9.968;2023-04-16T07:20:06;10.70;;;9.70;;
938;SDS011;456;53.584;9.968;2023-04-16T07:22:32;9.83;;;8.87;;
938;SDS011;456;53.584;9.968;2023-04-16T07:24:58;10.43;;;9.27;;
938;SDS011;456;53.584;9.968;2023-04-16T07:27:23;10.50;;;9.50;;
938;SDS011;456;53.584;9.968;2023-04-16T07:29:49;10.30;;;9.30;;
938;SDS011;456;53.584;9.968;2023-04-16T07:32:15;9.90;;;8.93;;
938;SDS011;456;53.584;9.968;2023-04-16T07:34:41;9.90;;;8.90;;
938;SDS011;456;53.584;9.968;2023-04-16T07:37:07;9.90;;;8.93;;
938;SDS011;456;53.584;9.968;2023-04-16T07:39:32;9.67;;;8.80;;
938;SDS011;456;53.584;9.968;2023-04-16T07:41:58;9.97;;;9.07;;
938;SDS011;456;53.584;9.968;2023-04-16T07:44:24;8.70;;;8.00;;
938;SDS011;456;53.584;9.968;2023-04-16T07:46:49;8.80;;;8.00;;
938;SDS011;456;53.584;9.968;2023-04-16T07:49:15;9.73;;;8.73;;
938;SDS011;456;53.584;9.968;2023-04-16T07:51:40;8.90;;;8.20;;
938;SDS011;456;53.584;9.968;2023-04-16T07:54:06;10.37;;;9.47;;
938;SDS011;456;53.584;9.968;2023-04-16T07:56:32;9.40;;;8.60;;
938;SDS011;456;53.584;9.968;2023-04-16T07:58:57;9.53;;;8.53;;
938;SDS011;456;53.584;9.968;2023-04-16T08:01:23;9.43;;;8.53;;
938;SDS011;456;53.584;9.968;2023-04-16T08:03:49;8.97;;;8.17;;
938;SDS011;456;53.584;9.968;2023-04-16T08:06:15;8.70;;;7.90;;
938;SDS011;456;53.584;9.968;2023-04-16T08:08:41;8.33;;;7.63;;
938;SDS011;456;53.584;9.968;2023-04-16T08:11:07;9.40;;;8.60;;
938;SDS011;456;53.584;9.968;2023-04-16T08:13:32;8.03;;;7.30;;
938;SDS011;456;53.584;9.968;2023-04-16T08:15:58;10.00;;;8.97;;
938;SDS011;456;53.584;9.968;2023-04-16T08:18:24;9.10;;;8.30;;
938;SDS011;456;53.584;9.968;2023-04-16T08:20:49;8.77;;;7.83;;
938;SDS011;456;53.584;9.968;2023-04-16T08:23:15;9.33;;;8.53;;
938;SDS011;456;53.584;9.968;2023-04-16T08:25:40;8.33;;;7.63;;
938;SDS011;456;53.584;9.968;2023-04-16T08:28:06;9.17;;;8.27;;
938;SDS011;456;53.584;9.968;2023-04-16T08:30:32;8.90;;;8.00;;
938;SDS011;456;53.584;9.968;2023-04-16T08:32:58;9.23;;;8.43;;
938;SDS011;456;53.584;9.968;2023-04-16T08:35:23;8.27;;;7.57;;
938;SDS011;456;53.584;9.968;2023-04-16T08:37:49;8.90;;;8.13;;
938;SDS011;456;53.584;9.968;2023-04-16T08:40:15;8.83;;;7.97;;
938;SDS011;456;53.584;9.968;2023-04-16T08:42:45;8.43;;;7.63;;
938;SDS011;456;53.584;9.968;2023-04-16T08:45:17;9.47;;;8.67;;
938;SDS011;456;53.584;9.968;2023-04-16T08:47:46;8.70;;;7.90;;
938;SDS011;456;53.584;9.968;2023-04-16T08:50:14;9.33;;;8.43;;
938;SDS011;456;53.584;9.968;2023-04-16T08:52:42;9.23;;;8.43;;
938;SDS011;456;53.584;9.968;2023-04-16T08:55:14;8.70;;;7.80;;
938;SDS011;456;53.584;9.968;2023-04-16T08:57:53;9.27;;;8.47;;
938;SDS011;456;53.584;9.968;2023-04-16T09:00:21;9.20;;;8.40;;
938;SDS011;456;53.584;9.968;2023-04-16T09:02:47;8.90;;;8.17;;
938;SDS011;456;53.584;9.968;2023-04-16T09:05:15;7.77;;;7.17;;
938;SDS011;456;53.584;9.968;2023-04-16T09:07:42;9.83;;;8.93;;
938;SDS011;456;53.584;9.968;2023-04-16T09:10:12;8.43;;;7.73;;
938;SDS011;456;53.584;9.968;2023-04-16T09:12:42;8.90;;;8.00;;
938;SDS011;456;53.584;9.968;2023-04-16T09:15:11;10.33;;;8.40;;
938;SDS011;456;53.584;9.968;2023-04-16T09:17:38;14.07;;;8.77;;
938;SDS011;456;53.584;9.968;2023-04-16T09:20:04;12.63;;;8.60;;
938;SDS011;456;53.584;9.968;2023-04-16T09:22:32;9.90;;;9.00;;
938;SDS011;456;53.584;9.968;2023-04-16T09:25:01;12.77;;;9.77;;
938;SDS011;456;53.584;9.968;2023-04-16T09:27:27;10.77;;;8.90;;
938;SDS011;456;53.584;9.968;2023-04-16T09:29:54;11.33;;;9.17;;
938;SDS011;456;53.584;9.968;2023-04-16T09:32:23;11.13;;;8.70;;
938;SDS011;456;53.584;9.968;2023-04-16T09:34:57;10.43;;;8.53;;
938;SDS011;456;53.584;9.968;2023-04-16T09:37:27;10.53;;;8.77;;
938;SDS011;456;53.584;9.968;2023-04-16T09:39:59;9.90;;;8.60;;
938;SDS011;456;53.584;9.968;2023-04-16T09:42:31;10.23;;;8.40;;
938;SDS011;456;53.584;9.968;2023-04-16T09:44:58;9.60;;;8.37;;
938;SDS011;456;53.584;9.968;2023-04-16T09:48:01;12.23;;;9.73;;
938;SDS011;456;53.584;9.968;2023-04-16T09:50:17;11.80;;;8.97;;
938;SDS011;456;53.584;9.968;2023-04-16T09:52:44;9.47;;;8.57;;
938;SDS011;456;53.584;9.968;2023-04-16T09:55:13;10.00;;;9.10;;
938;SDS011;456;53.584;9.968;2023-04-16T09:57:38;9.57;;;8.67;;
938;SDS011;456;53.584;9.968;2023-04-16T10:00:04;10.37;;;8.77;;
938;SDS011;456;53.584;9.968;2023-04-16T10:02:32;11.83;;;9.60;;
938;SDS011;456;53.584;9.968;2023-04-16T10:05:00;9.90;;;8.90;;
938;SDS011;456;53.584;9.968;2023-04-16T10:07:27;9.17;;;8.17;;
938;SDS011;456;53.584;9.968;2023-04-16T10:09:53;9.83;;;8.80;;
938;SDS011;456;53.584;9.968;2023-04-16T10:12:20;9.67;;;8.87;;
938;SDS011;456;53.584;9.968;2023-04-16T10:14:45;9.97;;;8.97;;
938;SDS011;456;53.584;9.968;2023-04-16T10:17:11;9.90;;;8.90;;
938;SDS011;456;53.584;9.968;2023-04-16T10:19:37;9.30;;;8.40;;
938;SDS011;456;53.584;9.968;2023-04-16T10:22:04;8.70;;;7.90;;
938;SDS011;456;53.584;9.968;2023-04-16T10:24:31;8.73;;;8.03;;
938;SDS011;456;53.584;9.968;2023-04-16T10:26:57;9.47;;;8.60;;
938;SDS011;456;53.584;9.968;2023-04-16T10:29:28;10.30;;;8.20;;
938;SDS011;456;53.584;9.968;2023-04-16T10:31:54;10.57;;;9.47;;
938;SDS011;456;53.584;9.968;2023-04-16T10:34:21;8.73;;;7.93;;
938;SDS011;456;53.584;9.968;2023-04-16T10:36:49;8.60;;;7.90;;
938;SDS011;456;53.584;9.968;2023-04-16T10:39:18;9.80;;;8.90;;
938;SDS011;456;53.584;9.968;2023-04-16T10:41:45;10.10;;;8.00;;
938;SDS011;456;53.584;9.968;2023-04-16T10:44:11;9.00;;;8.13;;
938;SDS011;456;53.584;9.968;2023-04-16T10:46:38;9.10;;;8.30;;
938;SDS011;456;53.584;9.968;2023-04-16T10:49:12;8.47;;;7.73;;
938;SDS011;456;53.584;9.968;2023-04-16T10:51:37;8.60;;;7.80;;
938;SDS011;456;53.584;9.968;2023-04-16T10:56:41;8.20;;;7.50;;
938;SDS011;456;53.584;9.968;2023-04-16T10:59:09;8.20;;;7.40;;
938;SDS011;456;53.584;9.968;2023-04-16T11:01:36;9.83;;;9.03;;
938;SDS011;456;53.584;9.968;2023-04-16T11:15:07;8.83;;;8.07;;
938;SDS011;456;53.584;9.968;2023-04-16T11:17:47;9.10;;;8.20;;
938;SDS011;456;53.584;9.968;2023-04-16T11:22:46;9.30;;;8.50;;
938;SDS011;456;53.584;9.968;2023-04-16T11:25:17;9.10;;;8.20;;
938;SDS011;456;53.584;9.968;2023-04-16T11:27:47;7.97;;;7.33;;
938;SDS011;456;53.584;9.968;2023-04-16T11:30:13;11.00;;;7.70;;
938;SDS011;456;53.584;9.968;2023-04-16T11:32:38;9.47;;;8.43;;
938;SDS011;456;53.584;9.968;2023-04-16T11:35:17;9.80;;;8.90;;
938;SDS011;456;53.584;9.968;2023-04-16T11:37:43;8.80;;;7.93;;
938;SDS011;456;53.584;9.968;2023-04-16T11:40:10;9.73;;;8.83;;
938;SDS011;456;53.584;9.968;2023-04-16T11:42:37;8.93;;;8.13;;
938;SDS011;456;53.584;9.968;2023-04-16T11:45:07;8.47;;;7.67;;
938;SDS011;456;53.584;9.968;2023-04-16T11:47:47;9.20;;;8.40;;
938;SDS011;456;53.584;9.968;2023-04-16T11:50:17;9.47;;;8.47;;
938;SDS011;456;53.584;9.968;2023-04-16T11:52:44;9.23;;;8.43;;
938;SDS011;456;53.584;9.968;2023-04-16T11:55:09;9.60;;;8.80;;
938;SDS011;456;53.584;9.968;2023-04-16T11:57:35;9.17;;;8.30;;
938;SDS011;456;53.584;9.968;2023-04-16T12:00:02;9.23;;;8.40;;
938;SDS011;456;53.584;9.968;2023-04-16T12:02:48;8.43;;;7.63;;
938;SDS011;456;53.584;9.968;2023-04-16T12:05:29;8.90;;;8.07;;
938;SDS011;456;53.584;9.968;2023-04-16T12:07:55;8.50;;;7.80;;
938;SDS011;456;53.584;9.968;2023-04-16T12:10:21;8.90;;;8.17;;
938;SDS011;456;53.584;9.968;2023-04-16T12:12:47;9.03;;;8.27;;
938;SDS011;456;53.584;9.968;2023-04-16T12:15:13;8.80;;;8.10;;
938;SDS011;456;53.584;9.968;2023-04-16T12:17:39;8.47;;;7.77;;
938;SDS011;456;53.584;9.968;2023-04-16T12:20:08;8.63;;;7.87;;
938;SDS011;456;53.584;9.968;2023-04-16T12:22:35;8.67;;;7.90;;
938;SDS011;456;53.584;9.968;2023-04-16T12:25:16;9.47;;;8.60;;
938;SDS011;456;53.584;9.968;2023-04-16T12:30:11;8.97;;;8.17;;
938;SDS011;456;53.584;9.968;2023-04-16T12:32:37;8.23;;;7.53;;
938;SDS011;456;53.584;9.968;2023-04-16T12:35:03;9.47;;;8.67;;
938;SDS011;456;53.584;9.968;2023-04-16T12:37:29;9.30;;;8.47;;
938;SDS011;456;53.584;9.968;2023-04-16T12:39:55;8.30;;;7.60;;
938;SDS011;456;53.584;9.968;2023-04-16T12:42:21;9.23;;;8.53;;
938;SDS011;456;53.584;9.968;2023-04-16T12:44:47;8.80;;;8.10;;
938;SDS011;456;53.584;9.968;2023-04-16T12:47:12;8.37;;;7.73;;
938;SDS011;456;53.584;9.968;2023-04-16T12:49:38;8.90;;;8.20;;
938;SDS011;456;53.584;9.968;2023-04-16T12:52:03;9.90;;;9.00;;
938;SDS011;456;53.584;9.968;2023-04-16T12:54:30;9.63;;;8.93;;
938;SDS011;456;53.584;9.968;2023-04-16T12:56:56;9.20;;;8.43;;
938;SDS011;456;53.584;9.968;2023-04-16T12:59:22;8.87;;;8.07;;
938;SDS011;456;53.584;9.968;2023-04-16T13:01:48;8.63;;;7.93;;
938;SDS011;456;53.584;9.968;2023-04-16T13:04:13;8.63;;;7.83;;
938;SDS011;456;53.584;9.968;2023-04-16T13:06:42;8.90;;;8.20;;
938;SDS011;456;53.584;9.968;2023-04-16T13:09:08;9.57;;;8.77;;
938;SDS011;456;53.584;9.968;2023-04-16T13:11:35;10.10;;;9.23;;
938;SDS011;456;53.584;9.968;2023-04-16T13:14:01;9.27;;;8.40;;
938;SDS011;456;53.584;9.968;2023-04-16T13:16:27;8.83;;;8.13;;
938;SDS011;456;53.584;9.968;2023-04-16T13:18:52;8.87;;;8.10;;
938;SDS011;456;53.584;9.968;2023-04-16T13:21:18;8.87;;;8.17;;
938;SDS011;456;53.584;9.968;2023-04-16T13:23:44;10.77;;;9.77;;
938;SDS011;456;53.584;9.968;2023-04-16T13:26:09;10.30;;;9.40;;
938;SDS011;456;53.584;9.968;2023-04-16T13:28:37;9.90;;;9.00;;
938;SDS011;456;53.584;9.968;2023-04-16T13:31:02;9.47;;;8.60;;
938;SDS011;456;53.584;9.968;2023-04-16T13:33:28;9.20;;;8.30;;
938;SDS011;456;53.584;9.968;2023-04-16T13:35:54;10.03;;;9.03;;
938;SDS011;456;53.584;9.968;2023-04-16T13:38:19;9.70;;;8.80;;
938;SDS011;456;53.584;9.968;2023-04-16T13:40:45;8.60;;;7.83;;
938;SDS011;456;53.584;9.968;2023-04-16T13:43:11;8.90;;;8.13;;
938;SDS011;456;53.584;9.968;2023-04-16T13:45:37;9.80;;;8.93;;
938;SDS011;456;53.584;9.968;2023-04-16T13:48:03;8.53;;;7.83;;
938;SDS011;456;53.584;9.968;2023-04-16T13:50:29;9.87;;;8.97;;
938;SDS011;456;53.584;9.968;2023-04-16T13:52:55;9.43;;;8.53;;
938;SDS011;456;53.584;9.968;2023-04-16T13:55:21;10.53;;;8.27;;
938;SDS011;456;53.584;9.968;2023-04-16T13:57:46;8.23;;;7.50;;
938;SDS011;456;53.584;9.968;2023-04-16T14:00:13;7.90;;;7.20;;
938;SDS011;456;53.584;9.968;2023-04-16T14:02:40;9.13;;;8.33;;
938;SDS011;456;53.584;9.968;2023-04-16T14:05:06;8.63;;;7.83;;
938;SDS011;456;53.584;9.968;2023-04-16T14:07:32;8.70;;;7.90;;
938;SDS011;456;53.584;9.968;2023-04-16T14:09:58;8.50;;;7.80;;
938;SDS011;456;53.584;9.968;2023-04-16T14:12:23;7.90;;;7.30;;
938;SDS011;456;53.584;9.968;2023-04-16T14:14:49;7.90;;;7.30;;
938;SDS011;456;53.584;9.968;2023-04-16T14:17:14;8.80;;;8.10;;
938;SDS011;456;53.584;9.968;2023-04-16T14:19:40;8.70;;;7.80;;
938;SDS011;456;53.584;9.968;2023-04-16T14:22:06;7.67;;;7.00;;
938;SDS011;456;53.584;9.968;2023-04-16T14:24:31;7.97;;;7.27;;
938;SDS011;456;53.584;9.968;2023-04-16T14:26:57;7.40;;;6.90;;
938;SDS011;456;53.584;9.968;2023-04-16T14:29:22;7.93;;;7.13;;
938;SDS011;456;53.584;9.968;2023-04-16T14:31:48;8.03;;;7.33;;
938;SDS011;456;53.584;9.968;2023-04-16T14:34:14;7.47;;;6.87;;
938;SDS011;456;53.584;9.968;2023-04-16T14:36:40;8.80;;;8.10;;
938;SDS011;456;53.584;9.968;2023-04-16T14:39:05;8.27;;;7.47;;
938;SDS011;456;53.584;9.968;2023-04-16T14:41:31;8.27;;;7.57;;
938;SDS011;456;53.584;9.968;2023-04-16T14:43:57;7.70;;;7.07;;
938;SDS011;456;53.584;9.968;2023-04-16T14:46:23;8.00;;;7.30;;
938;SDS011;456;53.584;9.968;2023-04-16T14:48:51;7.93;;;7.23;;
938;SDS011;456;53.584;9.968;2023-04-16T14:51:16;7.13;;;6.53;;
938;SDS011;456;53.584;9.968;2023-04-16T14:53:42;7.00;;;6.43;;
938;SDS011;456;53.584;9.968;2023-04-16T14:56:08;8.20;;;7.47;;
938;SDS011;456;53.584;9.968;2023-04-16T14:58:35;7.40;;;6.80;;
938;SDS011;456;53.584;9.968;2023-04-16T15:01:01;8.37;;;7.67;;
938;SDS011;456;53.584;9.968;2023-04-16T15:03:28;7.43;;;6.83;;
938;SDS011;456;53.584;9.968;2023-04-16T15:05:55;7.57;;;6.93;;
938;SDS011;456;53.584;9.968;2023-04-16T15:08:21;7.87;;;7.20;;
938;SDS011;456;53.584;9.968;2023-04-16T15:10:48;7.60;;;7.00;;
938;SDS011;456;53.584;9.968;2023-04-16T15:13:14;7.00;;;6.40;;
938;SDS011;456;53.584;9.968;2023-04-16T15:15:39;7.57;;;6.97;;
938;SDS011;456;53.584;9.968;2023-04-16T15:18:05;7.33;;;6.73;;
938;SDS011;456;53.584;9.968;2023-04-16T15:20:31;7.23;;;6.53;;
938;SDS011;456;53.584;9.968;2023-04-16T15:22:57;8.23;;;7.53;;
938;SDS011;456;53.584;9.968;2023-04-16T15:25:22;7.33;;;6.77;;
938;SDS011;456;53.584;9.968;2023-04-16T15:27:49;7.30;;;6.70;;
938;SDS011;456;53.584;9.968;2023-04-16T15:30:15;8.17;;;7.47;;
938;SDS011;456;53.584;9.968;2023-04-16T15:32:42;7.07;;;6.50;;
938;SDS011;456;53.584;9.968;2023-04-16T15:35:08;8.50;;;7.70;;
938;SDS011;456;53.584;9.968;2023-04-16T15:37:34;7.30;;;6.70;;
938;SDS011;456;53.584;9.968;2023-04-16T15:39:59;7.80;;;7.20;;
938;SDS011;456;53.584;9.968;2023-04-16T15:42:25;7.47;;;6.80;;
938;SDS011;456;53.584;9.968;2023-04-16T15:44:51;7.40;;;6.80;;
938;SDS011;456;53.584;9.968;2023-04-16T15:47:16;7.90;;;7.30;;
938;SDS011;456;53.584;9.968;2023-04-16T15:49:42;7.07;;;6.50;;